sensor_id;sensor_type;location;lat;lon;timestamp;P1;durP1;ratioP1;P2;durP2;ratioP2
14470;SDS011;7321;50.802;4.336;2023-05-02T00:00:43;36.90;;;22.73;;
14470;SDS011;7321;50.802;4.336;2023-05-02T00:03:10;38.43;;;22.93;;
14470;SDS011;7321;50.802;4.336;2023-05-02T00:05:36;34.63;;;21.57;;
14470;SDS011;7321;50.802;4.336;2023-05-02T00:08:02;37.20;;;21.33;;
14470;SDS011;7321;50.802;4.336;2023-05-02T00:10:29;38.13;;;21.50;;
14470;SDS011;7321;50.802;4.336;2023-05-02T00:12:54;31.77;;;21.67;;
14470;SDS011;7321;50.802;4.336;2023-05-02T00:15:20;30.17;;;20.63;;
14470;SDS011;7321;50.802;4.336;2023-05-02T00:17:46;33.93;;;20.40;;
14470;SDS011;7321;50.802;4.336;2023-05-02T00:20:12;35.17;;;20.57;;
14470;SDS011;7321;50.802;4.336;2023-05-02T00:22:38;29.90;;;19.97;;
14470;SDS011;7321;50.802;4.336;2023-05-02T00:25:04;35.10;;;20.63;;
14470;SDS011;7321;50.802;4.336;2023-05-02T00:27:30;30.53;;;20.47;;
14470;SDS011;7321;50.802;4.336;2023-05-02T00:29:57;32.50;;;18.60;;
14470;SDS011;7321;50.802;4.336;2023-05-02T00:32:24;33.50;;;20.90;;
14470;SDS011;7321;50.802;4.336;2023-05-02T00:34:51;32.90;;;20.10;;
14470;SDS011;7321;50.802;4.336;2023-05-02T00:37:17;33.53;;;20.50;;
14470;SDS011;7321;50.802;4.336;2023-05-02T00:39:43;37.20;;;21.53;;
14470;SDS011;7321;50.802;4.336;2023-05-02T00:42:09;35.93;;;22.53;;
14470;SDS011;7321;50.802;4.336;2023-05-02T00:44:35;33.03;;;22.47;;
14470;SDS011;7321;50.802;4.336;2023-05-02T00:47:00;34.60;;;22.47;;
14470;SDS011;7321;50.802;4.336;2023-05-02T00:49:26;36.50;;;22.37;;
14470;SDS011;7321;50.802;4.336;2023-05-02T00:51:53;36.00;;;22.17;;
14470;SDS011;7321;50.802;4.336;2023-05-02T00:54:19;39.63;;;22.43;;
14470;SDS011;7321;50.802;4.336;2023-05-02T00:56:45;37.77;;;23.53;;
14470;SDS011;7321;50.802;4.336;2023-05-02T00:59:11;38.03;;;23.87;;
14470;SDS011;7321;50.802;4.336;2023-05-02T01:10:29;45.53;;;24.63;;
14470;SDS011;7321;50.802;4.336;2023-05-02T01:13:08;41.63;;;25.30;;
14470;SDS011;7321;50.802;4.336;2023-05-02T01:15:40;46.47;;;27.53;;
14470;SDS011;7321;50.802;4.336;2023-05-02T01:18:11;46.00;;;28.30;;
14470;SDS011;7321;50.802;4.336;2023-05-02T01:20:39;46.07;;;27.53;;
14470;SDS011;7321;50.802;4.336;2023-05-02T01:23:16;46.07;;;29.67;;
14470;SDS011;7321;50.802;4.336;2023-05-02T01:31:13;48.00;;;29.23;;
14470;SDS011;7321;50.802;4.336;2023-05-02T01:33:40;43.93;;;27.10;;
14470;SDS011;7321;50.802;4.336;2023-05-02T01:36:08;49.23;;;29.90;;
14470;SDS011;7321;50.802;4.336;2023-05-02T01:38:36;46.80;;;29.87;;
14470;SDS011;7321;50.802;4.336;2023-05-02T01:41:04;49.13;;;30.33;;
14470;SDS011;7321;50.802;4.336;2023-05-02T01:43:31;44.43;;;27.70;;
14470;SDS011;7321;50.802;4.336;2023-05-02T01:45:59;46.43;;;28.53;;
14470;SDS011;7321;50.802;4.336;2023-05-02T01:48:28;47.87;;;29.27;;
14470;SDS011;7321;50.802;4.336;2023-05-02T01:50:55;42.00;;;28.20;;
14470;SDS011;7321;50.802;4.336;2023-05-02T01:53:24;49.70;;;28.50;;
14470;SDS011;7321;50.802;4.336;2023-05-02T01:55:52;49.63;;;29.37;;
14470;SDS011;7321;50.802;4.336;2023-05-02T01:58:19;53.40;;;30.13;;
14470;SDS011;7321;50.802;4.336;2023-05-02T02:00:47;53.50;;;29.53;;
14470;SDS011;7321;50.802;4.336;2023-05-02T02:03:14;44.63;;;28.83;;
14470;SDS011;7321;50.802;4.336;2023-05-02T02:05:40;46.43;;;27.90;;
14470;SDS011;7321;50.802;4.336;2023-05-02T02:08:07;43.50;;;29.13;;
14470;SDS011;7321;50.802;4.336;2023-05-02T02:10:39;47.07;;;28.50;;
14470;SDS011;7321;50.802;4.336;2023-05-02T02:13:17;46.03;;;28.90;;
14470;SDS011;7321;50.802;4.336;2023-05-02T02:15:50;46.53;;;26.10;;
14470;SDS011;7321;50.802;4.336;2023-05-02T02:18:22;42.77;;;26.73;;
14470;SDS011;7321;50.802;4.336;2023-05-02T02:20:51;44.67;;;27.83;;
14470;SDS011;7321;50.802;4.336;2023-05-02T02:23:18;46.23;;;27.70;;
14470;SDS011;7321;50.802;4.336;2023-05-02T02:25:47;47.33;;;28.47;;
14470;SDS011;7321;50.802;4.336;2023-05-02T02:28:15;44.83;;;27.87;;
14470;SDS011;7321;50.802;4.336;2023-05-02T02:30:41;46.33;;;28.57;;
14470;SDS011;7321;50.802;4.336;2023-05-02T02:33:06;47.90;;;30.40;;
14470;SDS011;7321;50.802;4.336;2023-05-02T02:35:36;51.17;;;28.93;;
14470;SDS011;7321;50.802;4.336;2023-05-02T02:43:26;46.63;;;28.80;;
14470;SDS011;7321;50.802;4.336;2023-05-02T02:46:16;49.67;;;29.07;;
14470;SDS011;7321;50.802;4.336;2023-05-02T02:52:36;43.90;;;28.23;;
14470;SDS011;7321;50.802;4.336;2023-05-02T02:57:36;45.60;;;27.30;;
14470;SDS011;7321;50.802;4.336;2023-05-02T03:02:35;43.40;;;27.53;;
14470;SDS011;7321;50.802;4.336;2023-05-02T03:05:01;47.50;;;28.30;;
14470;SDS011;7321;50.802;4.336;2023-05-02T03:07:28;39.83;;;26.80;;
14470;SDS011;7321;50.802;4.336;2023-05-02T03:09:54;40.73;;;25.57;;
14470;SDS011;7321;50.802;4.336;2023-05-02T03:12:20;43.17;;;27.07;;
14470;SDS011;7321;50.802;4.336;2023-05-02T03:14:46;42.30;;;25.73;;
14470;SDS011;7321;50.802;4.336;2023-05-02T03:17:12;42.80;;;26.50;;
14470;SDS011;7321;50.802;4.336;2023-05-02T03:19:39;43.83;;;26.27;;
14470;SDS011;7321;50.802;4.336;2023-05-02T03:22:05;43.20;;;26.87;;
14470;SDS011;7321;50.802;4.336;2023-05-02T03:24:30;41.67;;;27.37;;
14470;SDS011;7321;50.802;4.336;2023-05-02T03:26:57;43.57;;;27.70;;
14470;SDS011;7321;50.802;4.336;2023-05-02T03:29:23;39.90;;;24.70;;
14470;SDS011;7321;50.802;4.336;2023-05-02T03:31:50;35.73;;;23.30;;
14470;SDS011;7321;50.802;4.336;2023-05-02T03:34:16;32.03;;;22.00;;
14470;SDS011;7321;50.802;4.336;2023-05-02T03:36:43;33.37;;;20.40;;
14470;SDS011;7321;50.802;4.336;2023-05-02T03:39:09;35.50;;;21.53;;
14470;SDS011;7321;50.802;4.336;2023-05-02T03:41:36;35.93;;;23.20;;
14470;SDS011;7321;50.802;4.336;2023-05-02T03:44:02;36.43;;;22.57;;
14470;SDS011;7321;50.802;4.336;2023-05-02T03:46:28;32.87;;;21.77;;
14470;SDS011;7321;50.802;4.336;2023-05-02T03:48:56;36.53;;;21.93;;
14470;SDS011;7321;50.802;4.336;2023-05-02T03:51:22;37.67;;;23.57;;
14470;SDS011;7321;50.802;4.336;2023-05-02T03:53:48;36.33;;;23.50;;
14470;SDS011;7321;50.802;4.336;2023-05-02T03:56:17;37.13;;;23.37;;
14470;SDS011;7321;50.802;4.336;2023-05-02T03:58:46;39.80;;;24.37;;
14470;SDS011;7321;50.802;4.336;2023-05-02T04:01:16;39.73;;;25.17;;
14470;SDS011;7321;50.802;4.336;2023-05-02T04:03:42;38.20;;;24.53;;
14470;SDS011;7321;50.802;4.336;2023-05-02T04:06:07;41.53;;;25.23;;
14470;SDS011;7321;50.802;4.336;2023-05-02T04:08:33;38.77;;;24.93;;
14470;SDS011;7321;50.802;4.336;2023-05-02T04:10:59;43.23;;;25.97;;
14470;SDS011;7321;50.802;4.336;2023-05-02T04:13:25;39.80;;;25.60;;
14470;SDS011;7321;50.802;4.336;2023-05-02T04:15:53;48.57;;;27.40;;
14470;SDS011;7321;50.802;4.336;2023-05-02T04:18:18;44.90;;;29.43;;
14470;SDS011;7321;50.802;4.336;2023-05-02T04:20:44;47.97;;;28.90;;
14470;SDS011;7321;50.802;4.336;2023-05-02T04:23:10;49.67;;;29.90;;
14470;SDS011;7321;50.802;4.336;2023-05-02T04:25:36;49.37;;;30.13;;
14470;SDS011;7321;50.802;4.336;2023-05-02T04:28:02;53.80;;;30.10;;
14470;SDS011;7321;50.802;4.336;2023-05-02T04:30:27;49.63;;;29.47;;
14470;SDS011;7321;50.802;4.336;2023-05-02T04:32:53;48.73;;;30.00;;
14470;SDS011;7321;50.802;4.336;2023-05-02T04:35:20;48.93;;;28.33;;
14470;SDS011;7321;50.802;4.336;2023-05-02T04:37:45;48.90;;;29.37;;
14470;SDS011;7321;50.802;4.336;2023-05-02T04:40:11;49.13;;;29.17;;
14470;SDS011;7321;50.802;4.336;2023-05-02T04:42:37;50.10;;;30.53;;
14470;SDS011;7321;50.802;4.336;2023-05-02T04:45:03;48.90;;;29.83;;
14470;SDS011;7321;50.802;4.336;2023-05-02T04:47:30;50.73;;;30.10;;
14470;SDS011;7321;50.802;4.336;2023-05-02T04:49:55;48.97;;;29.10;;
14470;SDS011;7321;50.802;4.336;2023-05-02T04:52:21;44.30;;;27.30;;
14470;SDS011;7321;50.802;4.336;2023-05-02T04:54:47;46.70;;;28.43;;
14470;SDS011;7321;50.802;4.336;2023-05-02T04:57:13;47.17;;;28.10;;
14470;SDS011;7321;50.802;4.336;2023-05-02T04:59:39;47.60;;;28.70;;
14470;SDS011;7321;50.802;4.336;2023-05-02T05:02:04;46.23;;;29.00;;
14470;SDS011;7321;50.802;4.336;2023-05-02T05:04:32;48.53;;;29.70;;
14470;SDS011;7321;50.802;4.336;2023-05-02T05:06:58;48.33;;;29.63;;
14470;SDS011;7321;50.802;4.336;2023-05-02T05:09:24;67.33;;;40.80;;
14470;SDS011;7321;50.802;4.336;2023-05-02T05:11:50;126.20;;;90.73;;
14470;SDS011;7321;50.802;4.336;2023-05-02T05:14:15;118.33;;;73.37;;
14470;SDS011;7321;50.802;4.336;2023-05-02T05:16:41;116.10;;;88.50;;
14470;SDS011;7321;50.802;4.336;2023-05-02T05:19:07;128.83;;;94.47;;
14470;SDS011;7321;50.802;4.336;2023-05-02T05:21:33;179.00;;;153.40;;
14470;SDS011;7321;50.802;4.336;2023-05-02T05:23:59;61.60;;;40.63;;
14470;SDS011;7321;50.802;4.336;2023-05-02T05:26:24;54.47;;;35.77;;
14470;SDS011;7321;50.802;4.336;2023-05-02T05:28:51;47.13;;;33.20;;
14470;SDS011;7321;50.802;4.336;2023-05-02T05:31:17;52.90;;;38.47;;
14470;SDS011;7321;50.802;4.336;2023-05-02T05:33:42;47.50;;;31.37;;
14470;SDS011;7321;50.802;4.336;2023-05-02T05:36:12;53.93;;;37.60;;
14470;SDS011;7321;50.802;4.336;2023-05-02T05:38:41;47.37;;;35.33;;
14470;SDS011;7321;50.802;4.336;2023-05-02T05:41:07;43.93;;;26.70;;
14470;SDS011;7321;50.802;4.336;2023-05-02T05:43:33;43.03;;;26.20;;
14470;SDS011;7321;50.802;4.336;2023-05-02T05:45:59;42.00;;;27.07;;
14470;SDS011;7321;50.802;4.336;2023-05-02T05:48:25;43.67;;;26.93;;
14470;SDS011;7321;50.802;4.336;2023-05-02T05:50:51;37.77;;;24.60;;
14470;SDS011;7321;50.802;4.336;2023-05-02T05:53:17;35.60;;;25.00;;
14470;SDS011;7321;50.802;4.336;2023-05-02T05:55:43;38.67;;;25.13;;
14470;SDS011;7321;50.802;4.336;2023-05-02T05:58:10;36.07;;;25.73;;
14470;SDS011;7321;50.802;4.336;2023-05-02T06:00:36;36.57;;;24.43;;
14470;SDS011;7321;50.802;4.336;2023-05-02T06:03:03;40.10;;;25.03;;
14470;SDS011;7321;50.802;4.336;2023-05-02T06:05:30;33.53;;;23.43;;
14470;SDS011;7321;50.802;4.336;2023-05-02T06:07:56;33.27;;;23.17;;
14470;SDS011;7321;50.802;4.336;2023-05-02T06:10:22;30.73;;;23.00;;
14470;SDS011;7321;50.802;4.336;2023-05-02T06:12:48;34.83;;;22.67;;
14470;SDS011;7321;50.802;4.336;2023-05-02T06:15:15;32.47;;;21.50;;
14470;SDS011;7321;50.802;4.336;2023-05-02T06:17:40;32.40;;;22.27;;
14470;SDS011;7321;50.802;4.336;2023-05-02T06:20:06;31.57;;;21.27;;
14470;SDS011;7321;50.802;4.336;2023-05-02T06:22:33;36.47;;;23.13;;
14470;SDS011;7321;50.802;4.336;2023-05-02T06:25:00;30.97;;;20.97;;
14470;SDS011;7321;50.802;4.336;2023-05-02T06:27:26;36.30;;;23.27;;
14470;SDS011;7321;50.802;4.336;2023-05-02T06:29:52;32.77;;;23.47;;
14470;SDS011;7321;50.802;4.336;2023-05-02T06:32:18;33.07;;;23.73;;
14470;SDS011;7321;50.802;4.336;2023-05-02T06:34:44;33.17;;;23.20;;
14470;SDS011;7321;50.802;4.336;2023-05-02T06:37:10;34.90;;;23.70;;
14470;SDS011;7321;50.802;4.336;2023-05-02T06:39:36;31.97;;;22.73;;
14470;SDS011;7321;50.802;4.336;2023-05-02T06:42:02;34.50;;;24.20;;
14470;SDS011;7321;50.802;4.336;2023-05-02T06:44:28;45.27;;;30.40;;
14470;SDS011;7321;50.802;4.336;2023-05-02T06:46:54;46.63;;;34.17;;
14470;SDS011;7321;50.802;4.336;2023-05-02T06:49:20;38.77;;;28.03;;
14470;SDS011;7321;50.802;4.336;2023-05-02T06:51:47;46.67;;;36.30;;
14470;SDS011;7321;50.802;4.336;2023-05-02T06:54:12;37.53;;;28.90;;
14470;SDS011;7321;50.802;4.336;2023-05-02T06:56:41;50.07;;;40.10;;
14470;SDS011;7321;50.802;4.336;2023-05-02T06:59:07;45.03;;;33.63;;
14470;SDS011;7321;50.802;4.336;2023-05-02T07:01:33;43.43;;;27.37;;
14470;SDS011;7321;50.802;4.336;2023-05-02T07:04:00;44.93;;;34.20;;
14470;SDS011;7321;50.802;4.336;2023-05-02T07:06:30;37.43;;;26.17;;
14470;SDS011;7321;50.802;4.336;2023-05-02T07:08:56;40.57;;;31.80;;
14470;SDS011;7321;50.802;4.336;2023-05-02T07:11:22;56.87;;;46.37;;
14470;SDS011;7321;50.802;4.336;2023-05-02T07:13:48;50.77;;;39.67;;
14470;SDS011;7321;50.802;4.336;2023-05-02T07:16:14;36.83;;;27.47;;
14470;SDS011;7321;50.802;4.336;2023-05-02T07:18:40;36.93;;;29.50;;
14470;SDS011;7321;50.802;4.336;2023-05-02T07:21:07;39.03;;;28.83;;
14470;SDS011;7321;50.802;4.336;2023-05-02T07:23:33;37.73;;;27.57;;
14470;SDS011;7321;50.802;4.336;2023-05-02T07:25:59;35.10;;;26.30;;
14470;SDS011;7321;50.802;4.336;2023-05-02T07:28:24;34.37;;;25.33;;
14470;SDS011;7321;50.802;4.336;2023-05-02T07:30:50;32.57;;;25.23;;
14470;SDS011;7321;50.802;4.336;2023-05-02T07:33:16;33.60;;;25.70;;
14470;SDS011;7321;50.802;4.336;2023-05-02T07:35:42;34.27;;;27.40;;
14470;SDS011;7321;50.802;4.336;2023-05-02T07:38:08;41.27;;;32.33;;
14470;SDS011;7321;50.802;4.336;2023-05-02T07:40:34;35.03;;;26.80;;
14470;SDS011;7321;50.802;4.336;2023-05-02T07:43:00;32.33;;;24.83;;
14470;SDS011;7321;50.802;4.336;2023-05-02T07:45:26;30.40;;;25.20;;
14470;SDS011;7321;50.802;4.336;2023-05-02T07:47:52;31.07;;;25.50;;
14470;SDS011;7321;50.802;4.336;2023-05-02T07:50:18;30.60;;;24.07;;
14470;SDS011;7321;50.802;4.336;2023-05-02T07:52:44;32.37;;;24.27;;
14470;SDS011;7321;50.802;4.336;2023-05-02T07:55:10;34.13;;;24.73;;
14470;SDS011;7321;50.802;4.336;2023-05-02T07:57:36;29.90;;;23.90;;
14470;SDS011;7321;50.802;4.336;2023-05-02T08:00:02;28.17;;;22.53;;
14470;SDS011;7321;50.802;4.336;2023-05-02T08:02:32;27.37;;;21.57;;
14470;SDS011;7321;50.802;4.336;2023-05-02T08:04:57;28.73;;;22.93;;
14470;SDS011;7321;50.802;4.336;2023-05-02T08:07:23;25.50;;;20.90;;
14470;SDS011;7321;50.802;4.336;2023-05-02T08:09:49;27.43;;;22.03;;
14470;SDS011;7321;50.802;4.336;2023-05-02T08:12:15;25.77;;;20.70;;
14470;SDS011;7321;50.802;4.336;2023-05-02T08:14:41;23.27;;;18.83;;
14470;SDS011;7321;50.802;4.336;2023-05-02T08:17:07;25.90;;;20.53;;
14470;SDS011;7321;50.802;4.336;2023-05-02T08:19:32;26.20;;;18.97;;
14470;SDS011;7321;50.802;4.336;2023-05-02T08:21:58;25.90;;;20.03;;
14470;SDS011;7321;50.802;4.336;2023-05-02T08:24:24;24.57;;;19.03;;
14470;SDS011;7321;50.802;4.336;2023-05-02T08:26:50;26.43;;;18.63;;
14470;SDS011;7321;50.802;4.336;2023-05-02T08:29:16;22.10;;;18.47;;
14470;SDS011;7321;50.802;4.336;2023-05-02T08:31:42;23.97;;;19.17;;
14470;SDS011;7321;50.802;4.336;2023-05-02T08:34:07;21.77;;;16.50;;
14470;SDS011;7321;50.802;4.336;2023-05-02T08:36:33;17.97;;;16.00;;
14470;SDS011;7321;50.802;4.336;2023-05-02T08:39:01;19.93;;;16.10;;
14470;SDS011;7321;50.802;4.336;2023-05-02T08:41:27;19.17;;;15.60;;
14470;SDS011;7321;50.802;4.336;2023-05-02T08:43:54;18.97;;;13.53;;
14470;SDS011;7321;50.802;4.336;2023-05-02T08:46:21;15.50;;;11.40;;
14470;SDS011;7321;50.802;4.336;2023-05-02T08:48:47;13.50;;;11.10;;
14470;SDS011;7321;50.802;4.336;2023-05-02T08:51:15;13.03;;;10.77;;
14470;SDS011;7321;50.802;4.336;2023-05-02T08:53:42;10.60;;;9.50;;
14470;SDS011;7321;50.802;4.336;2023-05-02T08:56:10;11.40;;;9.63;;
14470;SDS011;7321;50.802;4.336;2023-05-02T08:58:38;11.90;;;9.37;;
14470;SDS011;7321;50.802;4.336;2023-05-02T09:01:09;10.83;;;9.20;;
14470;SDS011;7321;50.802;4.336;2023-05-02T09:03:41;12.23;;;8.53;;
14470;SDS011;7321;50.802;4.336;2023-05-02T09:06:18;10.70;;;8.47;;
14470;SDS011;7321;50.802;4.336;2023-05-02T09:08:46;11.87;;;8.27;;
14470;SDS011;7321;50.802;4.336;2023-05-02T09:11:13;10.30;;;7.80;;
14470;SDS011;7321;50.802;4.336;2023-05-02T09:13:41;8.83;;;7.80;;
14470;SDS011;7321;50.802;4.336;2023-05-02T09:16:11;9.97;;;7.63;;
14470;SDS011;7321;50.802;4.336;2023-05-02T09:18:39;9.03;;;7.23;;
14470;SDS011;7321;50.802;4.336;2023-05-02T09:21:11;9.67;;;7.60;;
14470;SDS011;7321;50.802;4.336;2023-05-02T09:23:42;9.27;;;7.40;;
14470;SDS011;7321;50.802;4.336;2023-05-02T09:26:14;7.67;;;6.53;;
14470;SDS011;7321;50.802;4.336;2023-05-02T09:28:47;9.23;;;7.87;;
14470;SDS011;7321;50.802;4.336;2023-05-02T09:31:15;8.27;;;7.50;;
14470;SDS011;7321;50.802;4.336;2023-05-02T09:33:50;9.30;;;7.50;;
14470;SDS011;7321;50.802;4.336;2023-05-02T09:36:17;11.13;;;7.40;;
14470;SDS011;7321;50.802;4.336;2023-05-02T09:38:45;11.80;;;8.90;;
14470;SDS011;7321;50.802;4.336;2023-05-02T09:41:15;9.27;;;8.37;;
14470;SDS011;7321;50.802;4.336;2023-05-02T09:43:53;10.83;;;7.90;;
14470;SDS011;7321;50.802;4.336;2023-05-02T09:46:23;9.73;;;8.57;;
14470;SDS011;7321;50.802;4.336;2023-05-02T09:48:52;10.30;;;8.30;;
14470;SDS011;7321;50.802;4.336;2023-05-02T09:51:20;12.47;;;8.77;;
14470;SDS011;7321;50.802;4.336;2023-05-02T09:53:47;9.10;;;8.20;;
14470;SDS011;7321;50.802;4.336;2023-05-02T09:56:14;11.00;;;9.33;;
14470;SDS011;7321;50.802;4.336;2023-05-02T09:58:40;10.47;;;8.80;;
14470;SDS011;7321;50.802;4.336;2023-05-02T10:01:06;10.47;;;9.33;;
14470;SDS011;7321;50.802;4.336;2023-05-02T10:03:34;10.90;;;9.37;;
14470;SDS011;7321;50.802;4.336;2023-05-02T10:06:02;10.27;;;9.20;;
14470;SDS011;7321;50.802;4.336;2023-05-02T10:08:29;10.10;;;9.17;;
14470;SDS011;7321;50.802;4.336;2023-05-02T10:10:57;12.10;;;9.20;;
14470;SDS011;7321;50.802;4.336;2023-05-02T10:13:25;9.27;;;8.30;;
14470;SDS011;7321;50.802;4.336;2023-05-02T10:16:01;9.83;;;8.40;;
14470;SDS011;7321;50.802;4.336;2023-05-02T10:21:24;9.53;;;8.50;;
14470;SDS011;7321;50.802;4.336;2023-05-02T10:23:53;9.33;;;8.40;;
14470;SDS011;7321;50.802;4.336;2023-05-02T10:26:20;10.80;;;9.03;;
14470;SDS011;7321;50.802;4.336;2023-05-02T10:28:50;11.77;;;9.70;;
14470;SDS011;7321;50.802;4.336;2023-05-02T10:31:17;10.20;;;8.70;;
14470;SDS011;7321;50.802;4.336;2023-05-02T10:33:43;13.45;;;11.02;;
14470;SDS011;7321;50.802;4.336;2023-05-02T10:36:10;14.15;;;12.18;;
14470;SDS011;7321;50.802;4.336;2023-05-02T10:38:37;14.38;;;12.93;;
14470;SDS011;7321;50.802;4.336;2023-05-02T10:41:05;15.82;;;12.65;;
14470;SDS011;7321;50.802;4.336;2023-05-02T10:43:36;12.90;;;11.77;;
14470;SDS011;7321;50.802;4.336;2023-05-02T10:46:03;11.20;;;10.13;;
14470;SDS011;7321;50.802;4.336;2023-05-02T10:51:30;13.05;;;11.55;;
14470;SDS011;7321;50.802;4.336;2023-05-02T10:59:28;15.13;;;10.15;;
14470;SDS011;7321;50.802;4.336;2023-05-02T11:01:56;10.50;;;9.50;;
14470;SDS011;7321;50.802;4.336;2023-05-02T11:04:23;11.05;;;9.43;;
14470;SDS011;7321;50.802;4.336;2023-05-02T11:12:00;9.95;;;9.10;;
14470;SDS011;7321;50.802;4.336;2023-05-02T11:24:46;9.95;;;8.95;;
14470;SDS011;7321;50.802;4.336;2023-05-02T11:29:55;10.23;;;9.00;;
14470;SDS011;7321;50.802;4.336;2023-05-02T11:35:22;9.53;;;8.57;;
14470;SDS011;7321;50.802;4.336;2023-05-02T11:37:58;11.50;;;8.40;;
14470;SDS011;7321;50.802;4.336;2023-05-02T11:40:29;10.57;;;9.65;;
14470;SDS011;7321;50.802;4.336;2023-05-02T11:42:58;9.77;;;8.88;;
14470;SDS011;7321;50.802;4.336;2023-05-02T11:45:34;15.90;;;12.00;;
14470;SDS011;7321;50.802;4.336;2023-05-02T11:48:02;23.35;;;16.92;;
14470;SDS011;7321;50.802;4.336;2023-05-02T11:50:29;10.40;;;8.93;;
14470;SDS011;7321;50.802;4.336;2023-05-02T11:52:55;12.20;;;8.77;;
14470;SDS011;7321;50.802;4.336;2023-05-02T11:55:21;12.13;;;8.77;;
14470;SDS011;7321;50.802;4.336;2023-05-02T11:57:51;9.90;;;8.20;;
14470;SDS011;7321;50.802;4.336;2023-05-02T12:00:16;9.45;;;7.53;;
14470;SDS011;7321;50.802;4.336;2023-05-02T12:02:50;9.77;;;7.45;;
14470;SDS011;7321;50.802;4.336;2023-05-02T12:05:28;9.77;;;8.77;;
14470;SDS011;7321;50.802;4.336;2023-05-02T12:07:56;8.70;;;7.90;;
14470;SDS011;7321;50.802;4.336;2023-05-02T12:10:22;9.27;;;7.65;;
14470;SDS011;7321;50.802;4.336;2023-05-02T12:13:03;10.15;;;7.88;;
14470;SDS011;7321;50.802;4.336;2023-05-02T12:15:30;9.45;;;8.45;;
14470;SDS011;7321;50.802;4.336;2023-05-02T12:17:57;9.02;;;8.13;;
14470;SDS011;7321;50.802;4.336;2023-05-02T12:20:27;9.18;;;8.05;;
14470;SDS011;7321;50.802;4.336;2023-05-02T12:22:53;10.68;;;9.40;;
14470;SDS011;7321;50.802;4.336;2023-05-02T12:25:19;14.48;;;11.95;;
14470;SDS011;7321;50.802;4.336;2023-05-02T12:27:58;11.13;;;10.05;;
14470;SDS011;7321;50.802;4.336;2023-05-02T12:30:28;10.85;;;8.40;;
14470;SDS011;7321;50.802;4.336;2023-05-02T12:32:55;10.68;;;8.35;;
14470;SDS011;7321;50.802;4.336;2023-05-02T12:35:23;10.35;;;8.35;;
14470;SDS011;7321;50.802;4.336;2023-05-02T12:37:50;9.27;;;8.03;;
14470;SDS011;7321;50.802;4.336;2023-05-02T12:40:18;11.47;;;7.73;;
14470;SDS011;7321;50.802;4.336;2023-05-02T12:43:00;8.88;;;7.97;;
14470;SDS011;7321;50.802;4.336;2023-05-02T12:45:28;7.33;;;6.63;;
14470;SDS011;7321;50.802;4.336;2023-05-02T12:47:58;9.90;;;7.23;;
14470;SDS011;7321;50.802;4.336;2023-05-02T12:50:37;8.20;;;7.50;;
14470;SDS011;7321;50.802;4.336;2023-05-02T12:53:03;9.90;;;7.97;;
14470;SDS011;7321;50.802;4.336;2023-05-02T12:55:30;11.70;;;9.00;;
14470;SDS011;7321;50.802;4.336;2023-05-02T12:58:03;13.70;;;8.75;;
14470;SDS011;7321;50.802;4.336;2023-05-02T13:00:31;10.30;;;8.00;;
14470;SDS011;7321;50.802;4.336;2023-05-02T13:03:04;14.10;;;9.03;;
14470;SDS011;7321;50.802;4.336;2023-05-02T13:05:30;10.57;;;7.70;;
14470;SDS011;7321;50.802;4.336;2023-05-02T13:07:56;6.93;;;6.22;;
14470;SDS011;7321;50.802;4.336;2023-05-02T13:10:23;9.90;;;8.07;;
14470;SDS011;7321;50.802;4.336;2023-05-02T13:12:50;11.07;;;9.00;;
14470;SDS011;7321;50.802;4.336;2023-05-02T13:15:17;8.88;;;7.85;;
14470;SDS011;7321;50.802;4.336;2023-05-02T13:17:43;7.68;;;6.63;;
14470;SDS011;7321;50.802;4.336;2023-05-02T13:20:10;7.43;;;5.97;;
14470;SDS011;7321;50.802;4.336;2023-05-02T13:22:36;9.55;;;5.00;;
14470;SDS011;7321;50.802;4.336;2023-05-02T13:25:05;7.80;;;5.75;;
14470;SDS011;7321;50.802;4.336;2023-05-02T13:27:32;10.68;;;5.28;;
14470;SDS011;7321;50.802;4.336;2023-05-02T13:29:59;8.17;;;5.20;;
14470;SDS011;7321;50.802;4.336;2023-05-02T13:32:28;5.85;;;5.35;;
14470;SDS011;7321;50.802;4.336;2023-05-02T13:34:54;9.03;;;5.80;;
14470;SDS011;7321;50.802;4.336;2023-05-02T13:37:20;6.73;;;4.73;;
14470;SDS011;7321;50.802;4.336;2023-05-02T13:39:46;6.87;;;5.10;;
14470;SDS011;7321;50.802;4.336;2023-05-02T13:42:12;7.37;;;5.20;;
14470;SDS011;7321;50.802;4.336;2023-05-02T13:44:38;5.33;;;4.77;;
14470;SDS011;7321;50.802;4.336;2023-05-02T13:47:04;8.33;;;4.90;;
14470;SDS011;7321;50.802;4.336;2023-05-02T13:49:30;10.47;;;4.70;;
14470;SDS011;7321;50.802;4.336;2023-05-02T13:51:56;7.20;;;4.37;;
14470;SDS011;7321;50.802;4.336;2023-05-02T13:54:22;7.35;;;4.50;;
14470;SDS011;7321;50.802;4.336;2023-05-02T13:56:50;5.88;;;4.13;;
14470;SDS011;7321;50.802;4.336;2023-05-02T13:59:16;7.55;;;3.80;;
14470;SDS011;7321;50.802;4.336;2023-05-02T14:01:41;6.88;;;4.15;;
14470;SDS011;7321;50.802;4.336;2023-05-02T14:04:10;5.38;;;4.22;;
14470;SDS011;7321;50.802;4.336;2023-05-02T14:06:36;5.03;;;4.20;;
14470;SDS011;7321;50.802;4.336;2023-05-02T14:09:05;8.95;;;5.60;;
14470;SDS011;7321;50.802;4.336;2023-05-02T14:11:31;8.30;;;5.38;;
14470;SDS011;7321;50.802;4.336;2023-05-02T14:13:57;8.15;;;5.80;;
14470;SDS011;7321;50.802;4.336;2023-05-02T14:16:24;6.60;;;4.88;;
14470;SDS011;7321;50.802;4.336;2023-05-02T14:18:50;8.30;;;4.70;;
14470;SDS011;7321;50.802;4.336;2023-05-02T14:21:15;6.97;;;4.23;;
14470;SDS011;7321;50.802;4.336;2023-05-02T14:23:41;9.05;;;4.85;;
14470;SDS011;7321;50.802;4.336;2023-05-02T14:26:07;5.90;;;4.37;;
14470;SDS011;7321;50.802;4.336;2023-05-02T14:28:33;5.07;;;4.30;;
14470;SDS011;7321;50.802;4.336;2023-05-02T14:30:59;6.47;;;4.87;;
14470;SDS011;7321;50.802;4.336;2023-05-02T14:33:25;9.43;;;5.10;;
14470;SDS011;7321;50.802;4.336;2023-05-02T14:35:51;7.85;;;5.07;;
14470;SDS011;7321;50.802;4.336;2023-05-02T14:38:17;9.87;;;6.10;;
14470;SDS011;7321;50.802;4.336;2023-05-02T14:40:43;6.93;;;4.77;;
14470;SDS011;7321;50.802;4.336;2023-05-02T14:43:09;9.10;;;5.40;;
14470;SDS011;7321;50.802;4.336;2023-05-02T14:45:38;7.40;;;4.57;;
14470;SDS011;7321;50.802;4.336;2023-05-02T14:48:03;9.17;;;5.17;;
14470;SDS011;7321;50.802;4.336;2023-05-02T14:50:31;6.27;;;4.70;;
14470;SDS011;7321;50.802;4.336;2023-05-02T14:52:57;8.30;;;4.90;;
14470;SDS011;7321;50.802;4.336;2023-05-02T14:55:23;6.77;;;4.73;;
14470;SDS011;7321;50.802;4.336;2023-05-02T14:57:49;6.37;;;5.37;;
14470;SDS011;7321;50.802;4.336;2023-05-02T15:00:15;8.27;;;4.33;;
14470;SDS011;7321;50.802;4.336;2023-05-02T15:02:41;5.47;;;4.40;;
14470;SDS011;7321;50.802;4.336;2023-05-02T15:05:07;8.43;;;4.80;;
14470;SDS011;7321;50.802;4.336;2023-05-02T15:07:36;10.23;;;4.57;;
14470;SDS011;7321;50.802;4.336;2023-05-02T15:10:02;7.37;;;4.60;;
14470;SDS011;7321;50.802;4.336;2023-05-02T15:12:28;5.63;;;3.90;;
14470;SDS011;7321;50.802;4.336;2023-05-02T15:14:54;6.37;;;3.73;;
14470;SDS011;7321;50.802;4.336;2023-05-02T15:17:20;8.03;;;4.20;;
14470;SDS011;7321;50.802;4.336;2023-05-02T15:19:46;7.15;;;4.10;;
14470;SDS011;7321;50.802;4.336;2023-05-02T15:22:12;5.57;;;3.88;;
14470;SDS011;7321;50.802;4.336;2023-05-02T15:24:39;5.53;;;3.63;;
14470;SDS011;7321;50.802;4.336;2023-05-02T15:27:05;6.28;;;4.25;;
14470;SDS011;7321;50.802;4.336;2023-05-02T15:29:33;7.97;;;5.20;;
14470;SDS011;7321;50.802;4.336;2023-05-02T15:31:59;7.13;;;4.35;;
14470;SDS011;7321;50.802;4.336;2023-05-02T15:34:26;4.70;;;3.80;;
14470;SDS011;7321;50.802;4.336;2023-05-02T15:36:52;8.85;;;5.25;;
14470;SDS011;7321;50.802;4.336;2023-05-02T15:39:17;7.20;;;4.47;;
14470;SDS011;7321;50.802;4.336;2023-05-02T15:41:44;6.45;;;4.82;;
14470;SDS011;7321;50.802;4.336;2023-05-02T15:44:12;7.57;;;5.00;;